EW4670 Weather Reports


Display with metric or nautical units.
time (UTC)temp
F
wind
direction
speed
MPH
gust
MPH
rain 1hr
in
rain 24hr
in
rain mn
in
humidity
%
barometer
mb
20181120163023 39 68 6.0 6.0 0.02 0.22 0.00 90 1013.8
20181120162520 39 23 3.0 3.0 0.02 0.22 0.00 89 1013.7
20181120162020 39 45 3.0 7.0 0.02 0.22 0.00 89 1013.7
20181120161517 39 68 0.0 2.0 0.02 0.22 0.00 89 1013.8
20181120161017 39 68 10.0 12.0 0.02 0.22 0.00 89 1013.7
20181120160520 39 45 6.0 8.0 0.02 0.22 0.00 89 1013.7
20181120160017 38 23 1.0 6.0 0.02 0.22 0.00 90 1013.7
20181120155517 38 68 6.0 6.0 0.02 0.22 0.00 90 1013.7
20181120155017 38 68 6.0 7.0 0.02 0.22 0.00 90 1013.7
20181120154520 38 113 7.0 8.0 0.02 0.22 0.00 90 1013.6
20181120154017 38 45 2.0 6.0 0.02 0.22 0.00 90 1013.6
20181120153517 38 90 2.0 6.0 0.02 0.22 0.00 90 1013.5
20181120153017 38 45 4.0 8.0 0.00 0.20 0.00 90 1013.5
20181120152517 38 23 8.0 8.0 0.00 0.20 0.00 90 1013.6
20181120152018 38 68 2.0 2.0 0.02 0.20 0.00 90 1013.6
20181120151517 38 45 1.0 6.0 0.02 0.20 0.00 90 1013.6
20181120151040 38 45 6.0 6.0 0.02 0.20 0.00 89 1013.7
20181120150523 38 68 0.0 2.0 0.02 0.20 0.00 89 1013.6
20181120150017 38 45 2.0 2.0 0.02 0.20 0.00 89 1013.6
20181120145518 38 45 6.0 9.0 0.02 0.20 0.00 89 1013.6
20181120145020 38 45 3.0 6.0 0.02 0.20 0.00 89 1013.6
20181120144517 38 68 6.0 6.0 0.02 0.20 0.00 89 1013.7
20181120144020 38 90 0.0 1.0 0.02 0.20 0.00 89 1013.7
20181120143517 38 68 1.0 1.0 0.02 0.20 0.00 89 1013.7
20181120143018 38 68 0.0 10.0 0.04 0.20 0.00 89 1013.7
20181120142520 38 45 10.0 10.0 0.04 0.20 0.00 89 1013.7
20181120142020 38 45 2.0 10.0 0.02 0.18 0.00 89 1013.8
20181120141517 38 23 6.0 6.0 0.02 0.18 0.00 89 1013.8
20181120141017 38 68 2.0 6.0 0.02 0.18 0.00 89 1013.8
20181120140518 38 68 2.0 10.0 0.04 0.18 0.00 89 1013.9
20181120140017 38 45 10.0 10.0 0.04 0.18 0.00 89 1013.9
20181120135517 38 45 4.0 6.0 0.04 0.18 0.00 89 1013.9
20181120135017 38 45 6.0 6.0 0.04 0.18 0.00 89 1013.9
20181120134517 38 68 0.0 1.0 0.04 0.18 0.00 89 1013.9
20181120134017 38 45 6.0 6.0 0.06 0.18 0.00 89 1014.0
20181120133518 38 68 0.0 6.0 0.06 0.18 0.00 89 1014.0
20181120133020 38 45 6.0 6.0 0.04 0.16 0.00 89 1014.0
20181120132517 38 45 3.0 3.0 0.04 0.16 0.00 89 1014.1
20181120132017 38 68 6.0 8.0 0.04 0.16 0.00 89 1014.0
20181120131517 38 68 8.0 10.0 0.06 0.16 0.00 88 1014.1
20181120131017 38 45 7.0 7.0 0.06 0.16 0.00 88 1014.2
20181120130520 38 68 6.0 6.0 0.06 0.14 0.00 88 1014.2
20181120130020 38 68 6.0 7.0 0.06 0.16 0.00 88 1014.1
20181120125517 38 45 6.0 6.0 0.06 0.16 0.00 88 1014.1
20181120125017 38 45 8.0 8.0 0.08 0.16 0.00 88 1014.1
20181120124523 38 45 4.0 7.0 0.10 0.16 0.00 88 1014.0
20181120124023 38 23 6.0 6.0 0.08 0.14 0.00 88 1014.0
20181120123517 38 68 6.0 9.0 0.08 0.14 0.00 88 1014.0
20181120123023 38 45 9.0 9.0 0.10 0.14 0.00 88 1013.9
20181120122520 38 45 0.0 3.0 0.10 0.14 0.00 88 1014.0
20181120122021 38 45 0.0 8.0 0.10 0.14 0.00 88 1013.9
20181120121518 37 45 8.0 8.0 0.08 0.12 0.00 88 1014.0
20181120121020 37 45 4.0 10.0 0.08 0.12 0.00 88 1014.0
20181120120517 37 45 5.0 5.0 0.06 0.10 0.00 87 1014.1
20181120120021 37 45 5.0 9.0 0.06 0.10 0.00 87 1014.2
20181120115517 37 45 9.0 9.0 0.06 0.10 0.00 87 1014.2
20181120115017 37 45 4.0 9.0 0.06 0.08 0.00 87 1014.3
20181120114517 38 45 3.0 9.0 0.04 0.06 0.00 87 1014.4
20181120114018 38 68 6.0 7.0 0.04 0.06 0.00 87 1014.5
20181120113517 38 45 6.0 6.0 0.04 0.06 0.00 87 1014.4
20181120113022 38 45 6.0 6.0 0.02 0.04 0.00 87 1014.5
20181120112517 38 68 4.0 6.0 0.02 0.04 0.00 86 1014.4
20181120112020 38 68 7.0 10.0 0.02 0.04 0.00 86 1014.4
20181120111521 38 68 8.0 8.0 0.02 0.04 0.00 86 1014.4
20181120111017 38 90 5.0 8.0 0.02 0.04 0.00 86 1014.4
20181120110518 38 45 8.0 8.0 0.02 0.04 0.00 85 1014.4
20181120110017 38 45 3.0 10.0 0.02 0.04 0.00 85 1014.4
20181120105517 38 45 6.0 6.0 0.02 0.04 0.00 85 1014.4
20181120105017 38 68 5.0 6.0 0.00 0.02 0.00 85 1014.3
20181120104520 38 45 6.0 11.0 0.00 0.02 0.00 84 1014.4
20181120104020 38 45 10.0 12.0 0.00 0.02 0.00 85 1014.3
20181120103520 38 68 5.0 5.0 0.00 0.02 0.00 85 1014.3
20181120103017 38 45 1.0 6.0 0.00 0.02 0.00 84 1014.3
20181120102517 38 23 6.0 8.0 0.00 0.02 0.00 84 1014.4
20181120102017 38 45 8.0 8.0 0.00 0.02 0.00 84 1014.4
20181120101517 38 45 4.0 8.0 0.00 0.02 0.00 83 1014.4
20181120101017 38 45 8.0 8.0 0.00 0.02 0.00 82 1014.5
20181120100517 38 45 9.0 11.0 0.00 0.02 0.00 82 1014.5
20181120100017 38 68 6.0 6.0 0.00 0.02 0.00 82 1014.5
20181120095518 38 68 6.0 6.0 0.00 0.02 0.00 82 1014.6
20181120095017 38 45 4.0 6.0 0.00 0.02 0.00 82 1014.7
20181120094519 38 45 6.0 7.0 0.00 0.02 0.00 82 1014.7
20181120094017 38 45 11.0 11.0 0.00 0.02 0.00 82 1014.7
20181120093520 38 0 3.0 9.0 0.00 0.02 0.00 82 1014.8
20181120093018 38 68 9.0 9.0 0.00 0.04 0.00 81 1014.9
20181120092517 38 45 14.0 14.0 0.00 0.04 0.00 81 1014.8
20181120092017 38 45 6.0 9.0 0.00 0.04 0.00 81 1014.9
20181120091520 38 23 2.0 10.0 0.00 0.04 0.00 80 1014.9
20181120091017 38 23 3.0 12.0 0.00 0.04 0.00 80 1014.9
20181120090523 38 45 5.0 8.0 0.00 0.04 0.00 80 1015.0
20181120090020 38 45 5.0 10.0 0.00 0.04 0.00 80 1014.9
20181120085517 38 23 5.0 5.0 0.00 0.04 0.00 79 1014.8
20181120084035 38 45 6.0 12.0 0.00 0.04 0.00 78 1014.8
20181120083537 38 68 12.0 12.0 0.00 0.04 0.00 78 1014.8
20181120083034 38 45 6.0 12.0 0.00 0.04 0.00 78 1014.6
20181120082534 38 45 12.0 12.0 0.00 0.04 0.00 78 1014.6
20181120082035 38 45 12.0 12.0 0.00 0.04 0.00 78 1014.7
20181120081534 38 45 6.0 6.0 0.00 0.04 0.00 78 1014.7
20181120081034 38 45 5.0 10.0 0.00 0.04 0.00 78 1014.9
20181120080535 38 45 10.0 10.0 0.00 0.04 0.00 77 1014.9
20181120080034 38 0 6.0 12.0 0.00 0.04 0.00 77 1014.8
20181120075534 38 68 12.0 12.0 0.00 0.04 0.00 78 1014.8
20181120075035 38 45 6.0 11.0 0.00 0.04 0.00 77 1014.8
20181120074534 38 45 2.0 6.0 0.00 0.04 0.00 77 1014.8
20181120074034 38 0 11.0 11.0 0.00 0.04 0.00 77 1014.8
20181120073535 39 45 8.0 11.0 0.00 0.04 0.00 77 1015.0
20181120073035 39 45 11.0 11.0 0.00 0.04 0.00 76 1015.1
20181120072534 39 90 5.0 8.0 0.00 0.04 0.00 76 1015.4
20181120072041 39 68 8.0 8.0 0.00 0.04 0.00 75 1015.4
20181120071534 39 23 8.0 10.0 0.00 0.06 0.00 74 1015.4
20181120071037 39 45 6.0 6.0 0.00 0.06 0.00 74 1015.5
20181120070534 39 45 12.0 12.0 0.00 0.06 0.00 74 1015.5
20181120070034 39 135 2.0 13.0 0.00 0.06 0.00 74 1015.5
20181120065540 39 45 11.0 11.0 0.00 0.06 0.00 74 1015.5
20181120065034 39 90 2.0 6.0 0.00 0.06 0.00 74 1015.4
20181120064538 39 45 4.0 4.0 0.00 0.06 0.00 74 1015.5
20181120064035 39 68 2.0 9.0 0.00 0.06 0.00 75 1015.6
20181120063535 39 45 9.0 9.0 0.00 0.06 0.00 75 1015.6
20181120063038 39 68 2.0 10.0 0.00 0.06 0.00 75 1015.5
20181120062537 39 45 10.0 10.0 0.00 0.06 0.00 76 1015.4
20181120062038 39 45 9.0 9.0 0.00 0.06 0.00 76 1015.4
20181120061536 38 45 8.0 8.0 0.00 0.06 0.00 76 1015.4
20181120061037 39 45 2.0 9.0 0.00 0.06 0.00 76 1015.4
20181120060534 38 45 9.0 9.0 0.00 0.06 0.00 77 1015.5
20181120060038 38 45 9.0 14.0 0.00 0.06 0.00 77 1015.7
20181120055535 38 45 12.0 12.0 0.00 0.06 0.00 77 1015.9
20181120055035 38 68 4.0 9.0 0.00 0.06 0.00 77 1015.8
20181120054540 38 45 9.0 9.0 0.00 0.06 0.00 77 1015.9
20181120054038 38 45 5.0 13.0 0.00 0.06 0.00 78 1015.5
20181120053535 38 45 6.0 9.0 0.00 0.06 0.00 78 1015.7
20181120053035 38 45 9.0 9.0 0.00 0.06 0.00 78 1015.8
20181120052535 38 45 12.0 12.0 0.00 0.06 0.00 79 1016.0
20181120052035 38 45 9.0 9.0 0.00 0.06 0.00 79 1016.3
20181120051535 38 135 4.0 9.0 0.00 0.06 0.00 79 1016.6
20181120051038 38 45 9.0 9.0 0.00 0.06 0.00 79 1016.7
20181120050538 38 68 7.0 8.0 0.00 0.06 0.00 79 1016.7
20181120050037 38 68 2.0 6.0 0.00 0.06 0.00 79 1016.7
20181120045537 38 45 6.0 6.0 0.00 0.06 0.00 79 1016.9
20181120045035 38 68 5.0 6.0 0.00 0.06 0.00 79 1017.1
20181120044542 38 68 1.0 7.0 0.00 0.06 0.00 79 1017.1
20181120044038 38 68 2.0 7.0 0.00 0.06 0.00 78 1017.0
20181120043534 38 23 6.0 9.0 0.00 0.06 0.00 79 1017.1
20181120043038 38 45 9.0 9.0 0.00 0.06 0.00 78 1017.1
20181120042535 39 45 5.0 6.0 0.00 0.06 0.00 79 1017.3
20181120042035 39 68 2.0 3.0 0.00 0.06 0.00 79 1017.3
20181120041535 39 90 2.0 5.0 0.00 0.06 0.00 79 1017.3
20181120041038 39 45 4.0 5.0 0.00 0.06 0.00 79 1017.4
20181120040535 39 68 5.0 7.0 0.00 0.06 0.00 79 1017.5
20181120040035 39 68 4.0 4.0 0.00 0.06 0.00 79 1017.6
20181120035535 39 68 4.0 4.0 0.00 0.06 0.00 79 1017.7
20181120035034 38 45 2.0 3.0 0.00 0.06 0.00 79 1017.7
20181120034538 38 23 3.0 6.0 0.00 0.06 0.00 80 1017.7
20181120034038 38 68 2.0 5.0 0.00 0.06 0.00 80 1017.7
20181120033538 38 45 5.0 5.0 0.00 0.06 0.00 80 1017.7
20181120033038 38 68 2.0 6.0 0.00 0.06 0.00 80 1017.9
20181120032538 38 45 6.0 7.0 0.00 0.06 0.00 80 1017.8
20181120032035 38 68 5.0 7.0 0.00 0.06 0.00 80 1017.8
20181120031535 38 45 7.0 9.0 0.00 0.06 0.00 80 1017.8
20181120031038 38 45 4.0 6.0 0.00 0.06 0.00 80 1017.8
20181120030535 38 45 6.0 6.0 0.00 0.06 0.00 80 1018.0
20181120030035 38 45 4.0 8.0 0.00 0.06 0.00 80 1017.9
20181120025535 38 68 5.0 10.0 0.00 0.06 0.00 81 1017.8
20181120025035 38 68 3.0 3.0 0.00 0.06 0.00 81 1017.8
20181120024535 38 113 2.0 4.0 0.00 0.06 0.00 81 1017.8
20181120024039 38 45 7.0 7.0 0.00 0.06 0.00 81 1017.9
20181120023541 38 90 2.0 9.0 0.00 0.06 0.00 81 1017.9
20181120023035 39 68 6.0 9.0 0.00 0.06 0.00 82 1017.9
20181120022535 39 45 8.0 9.0 0.00 0.06 0.00 82 1017.9
20181120022041 39 45 3.0 6.0 0.00 0.06 0.00 82 1018.0
20181120021535 39 68 4.0 5.0 0.00 0.06 0.00 82 1018.1
20181120021035 39 45 7.0 7.0 0.00 0.06 0.00 82 1018.1
20181120020535 38 68 6.0 6.0 0.00 0.06 0.00 82 1018.1
20181120020038 39 45 1.0 5.0 0.00 0.06 0.00 82 1018.2
20181120015535 38 68 6.0 6.0 0.00 0.06 0.00 82 1018.1
20181120015035 39 90 4.0 5.0 0.00 0.06 0.00 82 1018.1
20181120014538 39 45 2.0 4.0 0.00 0.06 0.00 82 1018.1
20181120014035 39 68 6.0 6.0 0.00 0.06 0.00 82 1018.2
20181120013538 38 113 8.0 8.0 0.00 0.06 0.00 82 1018.2
20181120013038 38 68 3.0 8.0 0.00 0.06 0.00 82 1018.2
20181120012535 39 90 6.0 6.0 0.00 0.06 0.00 82 1018.3
20181120012038 38 68 2.0 2.0 0.00 0.06 0.00 82 1018.3
20181120011535 38 45 2.0 9.0 0.00 0.06 0.00 82 1018.5
20181120011035 38 45 6.0 6.0 0.00 0.06 0.00 82 1018.5
20181120010538 38 45 4.0 7.0 0.00 0.06 0.00 82 1018.5
20181120010035 38 68 2.0 4.0 0.00 0.06 0.00 82 1018.5
20181120005538 38 68 2.0 6.0 0.00 0.06 0.00 82 1018.5
20181120005035 38 68 1.0 6.0 0.00 0.06 0.00 82 1018.6
20181120004538 38 68 6.0 8.0 0.00 0.06 0.00 82 1018.6
20181120004038 38 68 5.0 5.0 0.00 0.06 0.00 82 1018.5
20181120003535 38 68 4.0 11.0 0.00 0.06 0.00 82 1018.5
20181120003038 38 45 6.0 11.0 0.00 0.06 0.00 81 1018.5
20181120002537 38 45 4.0 7.0 0.00 0.06 0.00 82 1018.5
20181120002038 38 68 2.0 7.0 0.00 0.06 0.00 82 1018.4
20181120001538 38 68 5.0 10.0 0.00 0.06 0.00 82 1018.4
20181120001035 38 68 4.0 6.0 0.00 0.06 0.00 82 1018.4
20181120000535 38 45 6.0 6.0 0.00 0.06 0.00 82 1018.5
20181120000038 38 68 2.0 4.0 0.00 0.06 0.00 82 1018.5
20181119235536 38 68 5.0 8.0 0.00 0.06 0.00 82 1018.6
20181119235035 38 45 6.0 12.0 0.00 0.06 0.00 81 1018.6
20181119234535 38 45 8.0 8.0 0.00 0.06 0.00 82 1018.6
20181119234035 38 135 6.0 6.0 0.00 0.06 0.00 82 1018.6
20181119233535 38 45 5.0 5.0 0.00 0.06 0.00 82 1018.7
20181119233035 38 68 5.0 5.0 0.00 0.06 0.00 82 1018.6
20181119232535 38 23 8.0 8.0 0.00 0.06 0.00 82 1018.7
20181119232035 38 68 3.0 5.0 0.00 0.06 0.00 82 1018.7
20181119231535 38 45 5.0 5.0 0.00 0.06 0.00 82 1018.7
20181119231035 38 68 5.0 5.0 0.00 0.06 0.00 83 1018.8
20181119230535 38 45 2.0 5.0 0.00 0.06 0.00 83 1019.0
20181119230041 38 90 5.0 5.0 0.00 0.06 0.00 83 1019.1
20181119225535 38 45 7.0 7.0 0.00 0.06 0.00 84 1019.1
20181119225035 38 23 1.0 5.0 0.00 0.06 0.00 84 1019.1
20181119224535 38 68 4.0 4.0 0.00 0.06 0.00 84 1019.1
20181119224035 38 68 3.0 8.0 0.00 0.06 0.00 84 1019.2
20181119223535 38 68 7.0 7.0 0.00 0.06 0.00 85 1019.4
20181119223035 38 45 6.0 7.0 0.00 0.06 0.00 85 1019.5
20181119222535 38 68 3.0 3.0 0.00 0.06 0.00 85 1019.6
20181119222035 38 68 2.0 2.0 0.00 0.06 0.00 86 1019.7
20181119221538 38 113 1.0 1.0 0.00 0.06 0.00 86 1019.7
20181119221035 38 90 0.0 1.0 0.00 0.06 0.00 86 1019.5
20181119220535 38 113 0.0 2.0 0.00 0.06 0.00 86 1019.6
20181119220038 38 68 2.0 2.0 0.00 0.06 0.00 87 1019.6
20181119215535 38 68 2.0 3.0 0.00 0.06 0.00 87 1019.5
20181119215035 38 68 3.0 3.0 0.00 0.06 0.00 87 1019.5
20181119214536 38 68 3.0 3.0 0.00 0.06 0.00 87 1019.4
20181119214035 38 45 4.0 4.0 0.00 0.06 0.00 88 1019.5
20181119213535 38 90 2.0 2.0 0.00 0.06 0.00 88 1019.6
20181119213038 38 68 0.0 3.0 0.00 0.06 0.00 88 1019.6
20181119212535 38 90 3.0 3.0 0.00 0.06 0.00 88 1019.5
20181119212036 38 68 1.0 1.0 0.00 0.06 0.00 88 1019.5
20181119211539 38 68 0.0 3.0 0.00 0.06 0.00 89 1019.5
20181119211035 38 135 0.0 0.0 0.00 0.06 0.00 89 1019.6
20181119210535 38 135 0.0 2.0 0.00 0.06 0.00 89 1019.6
20181119210035 38 90 0.0 0.0 0.00 0.06 0.00 89 1019.6
20181119205535 38 113 0.0 3.0 0.00 0.06 0.00 89 1019.4
20181119205036 38 68 1.0 1.0 0.00 0.06 0.00 89 1019.3
20181119204535 38 68 0.0 0.0 0.00 0.06 0.00 89 1019.5
20181119204035 38 90 0.0 2.0 0.00 0.06 0.00 89 1019.6
20181119203536 38 68 2.0 2.0 0.00 0.06 0.00 88 1019.5
20181119203035 38 68 0.0 0.0 0.00 0.06 0.00 88 1019.5
20181119202535 38 68 0.0 0.0 0.00 0.06 0.00 88 1019.5
20181119200535 38 68 0.0 0.0 0.00 0.06 0.00 88 1019.4
20181119200035 38 113 0.0 0.0 0.00 0.06 0.00 88 1019.3
20181119195535 38 90 4.0 4.0 0.00 0.06 0.00 88 1019.3
20181119195034 38 68 0.0 0.0 0.00 0.06 0.00 88 1019.3
20181119194533 38 68 0.0 0.0 0.00 0.06 0.00 88 1019.3
20181119194034 38 90 0.0 4.0 0.00 0.06 0.00 88 1019.3
20181119193534 37 68 3.0 3.0 0.00 0.06 0.00 88 1019.3
20181119193037 37 45 0.0 0.0 0.00 0.06 0.00 88 1019.3
20181119192534 37 45 2.0 2.0 0.00 0.06 0.00 88 1019.2
20181119192037 37 45 0.0 4.0 0.00 0.06 0.00 88 1019.1
20181119191535 37 45 3.0 4.0 0.00 0.06 0.00 88 1019.2
20181119191034 37 45 2.0 4.0 0.00 0.06 0.00 88 1019.1
20181119190534 37 45 4.0 4.0 0.00 0.06 0.00 88 1019.1
20181119190034 37 45 7.0 7.0 0.00 0.06 0.00 87 1019.0
20181119185538 37 45 3.0 3.0 0.00 0.06 0.00 87 1019.0
20181119185034 37 45 0.0 3.0 0.00 0.06 0.00 87 1018.9
20181119184537 37 68 3.0 3.0 0.00 0.06 0.00 87 1018.9
20181119184034 37 68 5.0 5.0 0.00 0.06 0.00 87 1019.1
20181119183534 37 68 0.0 4.0 0.00 0.06 0.00 87 1019.2
20181119183034 37 68 2.0 3.0 0.00 0.06 0.00 87 1019.1
20181119182534 37 90 4.0 4.0 0.00 0.06 0.00 87 1019.1
20181119182042 37 113 0.0 6.0 0.00 0.06 0.00 87 1019.0
20181119181534 37 68 6.0 6.0 0.00 0.06 0.00 87 1019.0
20181119181037 37 45 6.0 6.0 0.00 0.06 0.00 87 1019.1
20181119180534 37 45 3.0 3.0 0.00 0.06 0.00 87 1018.9
20181119180037 37 68 0.0 5.0 0.00 0.06 0.00 87 1018.9
20181119175534 37 68 1.0 2.0 0.00 0.06 0.00 87 1018.8
20181119175034 37 90 1.0 4.0 0.00 0.06 0.00 87 1018.7
20181119174537 37 113 0.0 1.0 0.00 0.06 0.00 87 1018.8
20181119174038 37 68 2.0 3.0 0.00 0.06 0.00 87 1018.8
20181119173539 37 23 3.0 6.0 0.00 0.06 0.00 86 1018.6
20181119173039 37 45 4.0 7.0 0.00 0.06 0.00 86 1018.7
20181119172538 37 45 4.0 7.0 0.00 0.06 0.00 86 1018.7
20181119172034 37 45 0.0 7.0 0.00 0.06 0.00 86 1018.7
20181119171534 37 45 0.0 3.0 0.00 0.06 0.00 86 1018.7
20181119171040 37 45 4.0 5.0 0.00 0.06 0.00 86 1018.5
20181119170534 37 45 5.0 5.0 0.00 0.06 0.00 86 1018.6
20181119170037 37 68 0.0 2.0 0.00 0.06 0.00 86 1018.5
20181119165534 37 90 1.0 6.0 0.00 0.06 0.00 86 1018.4
20181119165034 37 45 6.0 6.0 0.00 0.06 0.00 86 1018.4
20181119164534 37 135 4.0 5.0 0.00 0.06 0.00 85 1018.5
20181119164036 37 45 5.0 5.0 0.00 0.06 0.00 85 1018.4
20181119163534 37 90 0.0 0.0 0.00 0.06 0.00 85 1018.5